Time;durP1;ratioP1;P1;durP2;ratioP2;P2;SDS_P1;SDS_P2;PMS_P1;PMS_P2;Temp;Humidity;BMP_temperature;BMP_pressure;BME280_temperature;BME280_humidity;BME280_pressure;Samples;Min_cycle;Max_cycle;Signal;HPM_P1;HPM_P2
2022/07/28 00:00:28;;;;;;;8.38;2.58;;;14.60;99.90;;;;;;3056854;19;20044;-66
2022/07/28 00:01:29;;;;;;;4.78;2.30;;;14.50;99.90;;;;;;3058397;19;20015;-67
2022/07/28 00:02:33;;;;;;;3.60;2.08;;;14.40;99.90;;;;;;3056829;19;20047;-67
2022/07/28 00:03:35;;;;;;;3.97;2.10;;;14.50;99.90;;;;;;3056979;19;20492;-66
2022/07/28 00:04:39;;;;;;;5.80;2.75;;;14.40;99.90;;;;;;3057799;19;20370;-67
2022/07/28 00:05:40;;;;;;;4.10;2.40;;;14.30;99.90;;;;;;3057800;19;20463;-67
2022/07/28 00:06:44;;;;;;;4.95;2.45;;;14.20;99.90;;;;;;3057512;19;20017;-67
2022/07/28 00:07:48;;;;;;;5.53;2.40;;;14.60;99.90;;;;;;3057914;19;20026;-67
2022/07/28 00:08:49;;;;;;;3.78;2.13;;;14.30;99.90;;;;;;3057208;19;20017;-66
2022/07/28 00:09:54;;;;;;;3.65;2.45;;;14.40;99.90;;;;;;3057939;19;20025;-67
2022/07/28 00:10:58;;;;;;;5.47;2.38;;;14.40;99.90;;;;;;3056068;19;20022;-67
2022/07/28 00:12:02;;;;;;;3.53;2.40;;;14.30;99.90;;;;;;3057215;19;20003;-66
2022/07/28 00:13:03;;;;;;;5.03;2.30;;;14.40;99.90;;;;;;3056517;19;20021;-67
2022/07/28 00:14:07;;;;;;;3.55;2.47;;;14.30;99.90;;;;;;3057779;19;20002;-69
2022/07/28 00:15:09;;;;;;;3.63;2.20;;;14.40;99.90;;;;;;3057479;19;20015;-67
2022/07/28 00:16:13;;;;;;;4.28;2.20;;;14.40;99.90;;;;;;3057560;19;20017;-67
2022/07/28 00:17:15;;;;;;;7.00;2.63;;;14.40;99.90;;;;;;3059233;19;20038;-67
2022/07/28 00:18:18;;;;;;;5.88;2.38;;;14.30;99.90;;;;;;3058008;19;20353;-67
2022/07/28 00:19:22;;;;;;;5.82;2.42;;;14.40;99.90;;;;;;3058133;19;20479;-67
2022/07/28 00:20:25;;;;;;;7.13;2.40;;;14.30;99.90;;;;;;3056645;19;20357;-66
2022/07/28 00:21:29;;;;;;;5.75;2.10;;;14.20;99.90;;;;;;3057455;19;20162;-67
2022/07/28 00:22:30;;;;;;;5.75;2.60;;;14.30;99.90;;;;;;3057412;19;20047;-67
2022/07/28 00:23:34;;;;;;;4.25;2.40;;;13.80;99.90;;;;;;3057209;19;20681;-66
2022/07/28 00:24:36;;;;;;;6.10;2.40;;;14.30;99.90;;;;;;3054967;19;20019;-67
2022/07/28 00:25:40;;;;;;;4.97;2.22;;;14.40;99.90;;;;;;3057422;19;20015;-67
2022/07/28 00:26:44;;;;;;;3.78;2.25;;;13.80;99.90;;;;;;3057607;19;20535;-67
2022/07/28 00:27:48;;;;;;;2.88;2.00;;;14.20;99.90;;;;;;3056587;19;20011;-67
2022/07/28 00:28:49;;;;;;;6.80;2.60;;;14.40;99.90;;;;;;3057542;19;19999;-66
2022/07/28 00:29:53;;;;;;;4.82;2.38;;;14.20;99.90;;;;;;3057943;19;20385;-67
2022/07/28 00:30:55;;;;;;;4.30;2.30;;;14.30;99.90;;;;;;3057077;19;20483;-67
2022/07/28 00:31:58;;;;;;;5.95;2.40;;;14.20;99.90;;;;;;3057341;19;20039;-67
2022/07/28 00:33:02;;;;;;;6.13;2.42;;;14.30;99.90;;;;;;3056008;19;20073;-67
2022/07/28 00:34:04;;;;;;;3.20;1.90;;;13.90;99.90;;;;;;3058359;19;20018;-67
2022/07/28 00:35:08;;;;;;;2.83;1.92;;;14.40;99.90;;;;;;3057306;19;20007;-67
2022/07/28 00:36:10;;;;;;;3.38;2.15;;;14.40;99.90;;;;;;3057417;19;20480;-67
2022/07/28 00:37:14;;;;;;;4.80;2.25;;;14.30;99.90;;;;;;3057584;19;20015;-67
2022/07/28 00:38:16;;;;;;;4.57;2.20;;;14.20;99.90;;;;;;3056643;19;20011;-67
2022/07/28 00:39:20;;;;;;;3.45;1.90;;;14.20;99.90;;;;;;3057179;19;20014;-67
2022/07/28 00:40:21;;;;;;;2.72;1.90;;;14.30;99.90;;;;;;3056288;19;20039;-67
2022/07/28 00:41:25;;;;;;;4.57;2.65;;;14.30;99.90;;;;;;3056752;19;19999;-66
2022/07/28 00:42:29;;;;;;;5.97;2.50;;;14.20;99.90;;;;;;3057417;19;20006;-66
2022/07/28 00:43:33;;;;;;;3.10;2.00;;;14.20;99.90;;;;;;3054206;19;20125;-66
2022/07/28 00:44:34;;;;;;;6.38;2.75;;;14.80;99.90;;;;;;3057562;19;20017;-67
2022/07/28 00:45:38;;;;;;;3.95;2.42;;;14.20;99.90;;;;;;3057363;19;20009;-67
2022/07/28 00:46:42;;;;;;;3.65;2.33;;;14.00;99.90;;;;;;3057350;19;20021;-67
2022/07/28 00:47:43;;;;;;;6.32;2.45;;;14.30;99.90;;;;;;3057945;19;20010;-67
2022/07/28 00:48:50;;;;;;;3.70;2.35;;;14.10;99.90;;;;;;3056883;19;20023;-67
2022/07/28 00:49:52;;;;;;;7.03;2.70;;;14.20;99.90;;;;;;3057112;19;20006;-67
2022/07/28 00:50:56;;;;;;;5.65;2.45;;;14.10;99.90;;;;;;3057383;19;20003;-67
2022/07/28 00:51:57;;;;;;;3.72;2.03;;;14.20;99.90;;;;;;3056976;19;20010;-66
2022/07/28 00:53:02;;;;;;;5.72;2.30;;;14.10;99.90;;;;;;3056249;19;20031;-67
2022/07/28 00:54:04;;;;;;;4.40;2.22;;;14.20;99.90;;;;;;3057430;19;20018;-67
2022/07/28 00:55:08;;;;;;;4.13;2.53;;;13.70;99.90;;;;;;3057148;19;20014;-66
2022/07/28 00:56:10;;;;;;;4.40;2.00;;;13.90;99.90;;;;;;3057017;19;20014;-67
2022/07/28 00:57:14;;;;;;;3.15;2.10;;;14.00;99.90;;;;;;3057418;19;19999;-67
2022/07/28 00:58:18;;;;;;;3.67;1.88;;;13.90;99.90;;;;;;3056481;19;20026;-67
2022/07/28 00:59:22;;;;;;;4.85;2.30;;;14.10;99.90;;;;;;3060081;19;20014;-67
2022/07/28 01:00:23;;;;;;;5.47;2.08;;;14.00;99.90;;;;;;3061048;19;20022;-67
2022/07/28 01:01:27;;;;;;;3.47;2.20;;;14.00;99.90;;;;;;3060369;19;20019;-67
2022/07/28 01:02:28;;;;;;;5.35;2.20;;;14.20;99.90;;;;;;3060197;19;20502;-67
2022/07/28 01:03:33;;;;;;;4.82;2.45;;;13.50;99.90;;;;;;3056442;19;20014;-67
2022/07/28 01:04:38;;;;;;;2.60;2.00;;;14.00;99.90;;;;;;3060101;19;20090;-66
2022/07/28 01:05:49;;;;;;;3.50;2.03;;;13.90;99.90;;;;;;3060600;19;20007;-67
2022/07/28 01:07:07;;;;;;;4.63;2.15;;;13.90;99.90;;;;;;3060234;19;20019;-68
2022/07/28 01:08:16;;;;;;;3.33;1.70;;;13.90;99.90;;;;;;3062462;19;20512;-67
2022/07/28 01:09:40;;;;;;;4.45;2.30;;;13.80;99.90;;;;;;3060364;19;20015;-67
2022/07/28 01:10:55;;;;;;;5.47;2.40;;;13.70;99.90;;;;;;3060875;19;20019;-66
2022/07/28 01:12:04;;;;;;;4.50;2.20;;;13.80;99.90;;;;;;3061163;19;20426;-66
2022/07/28 01:13:15;;;;;;;4.20;2.60;;;13.90;99.90;;;;;;3059734;19;20032;-66
2022/07/28 01:14:28;;;;;;;6.63;2.70;;;13.70;99.90;;;;;;3062545;19;20021;-67
2022/07/28 01:15:35;;;;;;;7.05;2.45;;;13.80;99.90;;;;;;3059461;19;20011;-67
2022/07/28 01:16:42;;;;;;;5.57;2.60;;;13.70;99.90;;;;;;3062307;19;20058;-66
2022/07/28 01:17:54;;;;;;;7.78;2.60;;;13.30;99.90;;;;;;3060781;19;20010;-67
2022/07/28 01:19:03;;;;;;;7.90;2.38;;;13.70;99.90;;;;;;3059420;19;20423;-68
2022/07/28 01:20:14;;;;;;;3.55;2.40;;;13.70;99.90;;;;;;3060820;19;20030;-67
2022/07/28 01:21:22;;;;;;;6.70;2.97;;;13.40;99.90;;;;;;3061065;19;20015;-67
2022/07/28 01:22:30;;;;;;;5.63;2.60;;;13.80;99.90;;;;;;3061165;19;20023;-66
2022/07/28 01:23:53;;;;;;;6.22;2.78;;;13.70;99.90;;;;;;3058746;19;20024;-66
2022/07/28 01:25:06;;;;;;;5.88;2.70;;;13.70;99.90;;;;;;3059898;19;20500;-66
2022/07/28 01:26:15;;;;;;;;;;;13.70;99.90;;;;;;3061581;19;20015;-66
2022/07/28 01:27:32;;;;;;;4.55;2.83;;;13.70;99.90;;;;;;3061798;19;19918;-66
2022/07/28 01:28:50;;;;;;;5.80;2.63;;;14.00;99.90;;;;;;3062028;19;20016;-66
2022/07/28 01:30:12;;;;;;;4.95;2.30;;;13.80;99.90;;;;;;3060964;19;20047;-67
2022/07/28 01:31:22;;;;;;;5.57;2.72;;;13.50;99.90;;;;;;3062316;19;20501;-67
2022/07/28 01:32:28;;;;;;;5.50;2.30;;;14.00;99.90;;;;;;3062348;19;20011;-66
2022/07/28 01:33:37;;;;;;;4.20;2.40;;;13.60;99.90;;;;;;3060885;19;20033;-66
2022/07/28 01:34:49;;;;;;;8.85;2.70;;;13.70;99.90;;;;;;3061784;19;20042;-67
2022/07/28 01:36:00;;;;;;;7.00;2.80;;;13.80;99.90;;;;;;3062511;19;20026;-67
2022/07/28 01:37:06;;;;;;;4.97;2.50;;;14.00;99.90;;;;;;3061577;19;20018;-66
2022/07/28 01:38:13;;;;;;;6.65;2.53;;;13.60;99.90;;;;;;3061142;19;20011;-66
2022/07/28 01:39:17;;;;;;;5.45;2.90;;;13.70;99.90;;;;;;3060172;19;20007;-67
2022/07/28 01:40:25;;;;;;;6.13;3.00;;;13.60;99.90;;;;;;3059691;19;20014;-67
2022/07/28 01:41:30;;;;;;;8.75;3.03;;;13.60;99.90;;;;;;3060076;19;20318;-67
2022/07/28 01:42:38;;;;;;;4.47;2.50;;;13.20;99.90;;;;;;3057031;19;20034;-67
2022/07/28 01:43:46;;;;;;;4.53;2.60;;;13.70;99.90;;;;;;3059056;19;20014;-67
2022/07/28 01:44:52;;;;;;;5.45;2.50;;;13.20;99.90;;;;;;3059055;19;20036;-67
2022/07/28 01:45:57;;;;;;;5.60;2.42;;;13.50;99.90;;;;;;3059027;19;20022;-68
2022/07/28 01:47:06;;;;;;;7.22;2.60;;;13.50;99.90;;;;;;3059272;19;20038;-67
2022/07/28 01:48:12;;;;;;;3.28;2.28;;;13.50;99.90;;;;;;3061081;19;20007;-67
2022/07/28 01:49:15;;;;;;;6.50;2.55;;;13.20;99.90;;;;;;3059827;19;20081;-66
2022/07/28 01:50:22;;;;;;;5.95;2.65;;;13.20;99.90;;;;;;3058797;19;20018;-67
2022/07/28 01:51:26;;;;;;;5.43;2.60;;;13.50;99.90;;;;;;3061297;19;20393;-67
2022/07/28 01:52:31;;;;;;;4.90;2.30;;;13.50;99.90;;;;;;3058246;19;20047;-67
2022/07/28 01:53:36;;;;;;;5.25;2.60;;;13.70;99.90;;;;;;3058824;19;20014;-66
2022/07/28 01:54:44;;;;;;;7.75;2.85;;;13.30;99.90;;;;;;3059453;19;20046;-67
2022/07/28 01:55:47;;;;;;;6.72;2.90;;;13.40;99.90;;;;;;3059487;19;20091;-66
2022/07/28 01:56:54;;;;;;;6.50;2.80;;;13.30;99.90;;;;;;3058590;19;20018;-67
2022/07/28 01:57:56;;;;;;;4.53;2.80;;;13.40;99.90;;;;;;3059706;19;20006;-67
2022/07/28 01:59:01;;;;;;;;;;;13.50;99.90;;;;;;3060148;19;20014;-66
2022/07/28 02:00:06;;;;;;;3.35;2.35;;;13.40;99.90;;;;;;3059598;19;19911;-67
2022/07/28 02:01:12;;;;;;;6.97;2.97;;;13.40;99.90;;;;;;3059188;19;20081;-66
2022/07/28 02:02:18;;;;;;;6.30;2.50;;;13.50;99.90;;;;;;3058890;19;20077;-66
2022/07/28 02:03:25;;;;;;;5.30;2.83;;;13.30;99.90;;;;;;3057275;19;20089;-67
2022/07/28 02:04:27;;;;;;;5.28;2.70;;;13.50;99.90;;;;;;3059613;19;20002;-66
2022/07/28 02:05:32;;;;;;;5.25;2.78;;;13.60;99.90;;;;;;3059280;19;20015;-66
2022/07/28 02:06:34;;;;;;;5.57;2.85;;;13.30;99.90;;;;;;3057489;19;20333;-67
2022/07/28 02:07:39;;;;;;;4.78;3.05;;;13.30;99.90;;;;;;3059823;19;20484;-67
2022/07/28 02:08:42;;;;;;;5.43;2.35;;;13.40;99.90;;;;;;3059715;19;20010;-67
2022/07/28 02:09:48;;;;;;;4.80;2.35;;;13.20;99.90;;;;;;3060770;19;20092;-66
2022/07/28 02:12:13;;;;;;;5.93;2.40;;;13.30;99.90;;;;;;3059231;19;20345;-66
2022/07/28 02:13:14;;;;;;;6.80;2.53;;;13.30;99.90;;;;;;3056379;19;20014;-66
2022/07/28 02:14:22;;;;;;;5.72;2.55;;;13.70;99.90;;;;;;3060499;19;20370;-67
2022/07/28 02:15:26;;;;;;;4.85;2.80;;;13.30;99.90;;;;;;3059079;19;20031;-67
2022/07/28 02:16:31;;;;;;;5.30;2.30;;;13.30;99.90;;;;;;3059422;19;20082;-66
2022/07/28 02:17:36;;;;;;;5.45;2.90;;;13.30;99.90;;;;;;3059051;19;20023;-66
2022/07/28 02:18:42;;;;;;;6.10;2.70;;;13.30;99.90;;;;;;3058374;19;20022;-66
2022/07/28 02:19:45;;;;;;;5.60;2.80;;;13.30;99.90;;;;;;3059166;19;20484;-66
2022/07/28 02:20:51;;;;;;;4.18;2.30;;;13.40;99.90;;;;;;3059439;19;20491;-67
2022/07/28 02:21:54;;;;;;;6.40;2.70;;;13.40;99.90;;;;;;3058495;19;20018;-67
2022/07/28 02:22:59;;;;;;;5.38;2.97;;;13.10;99.90;;;;;;3055899;19;20011;-67
2022/07/28 02:24:02;;;;;;;5.55;2.55;;;13.50;99.90;;;;;;3058294;19;20486;-66
2022/07/28 02:25:08;;;;;;;5.40;2.70;;;13.40;99.90;;;;;;3058864;19;20018;-66
2022/07/28 02:26:11;;;;;;;6.25;3.13;;;13.40;99.90;;;;;;3058788;19;20011;-67
2022/07/28 02:27:21;;;;;;;7.30;2.58;;;13.40;99.90;;;;;;3059268;19;20007;-66
2022/07/28 02:28:26;;;;;;;4.65;2.33;;;13.10;99.90;;;;;;3058728;19;20522;-69
2022/07/28 02:29:33;;;;;;;7.18;2.92;;;13.40;99.90;;;;;;3061245;19;20038;-66
2022/07/28 02:30:40;;;;;;;6.18;2.42;;;13.30;99.90;;;;;;3059080;19;20018;-67
2022/07/28 02:31:49;;;;;;;3.67;2.55;;;13.00;99.90;;;;;;3059529;19;20124;-66
2022/07/28 02:32:58;;;;;;;5.78;2.67;;;13.30;99.90;;;;;;3058672;19;20022;-68
2022/07/28 02:34:02;;;;;;;5.63;2.40;;;13.40;99.90;;;;;;3059265;19;20031;-67
2022/07/28 02:35:11;;;;;;;4.70;2.67;;;13.20;99.90;;;;;;3059532;19;20007;-67
2022/07/28 02:36:16;;;;;;;4.85;2.70;;;13.30;99.90;;;;;;3059603;19;20476;-68
2022/07/28 02:37:21;;;;;;;7.00;2.67;;;13.40;99.90;;;;;;3059118;19;20475;-66
2022/07/28 02:38:25;;;;;;;4.85;2.47;;;13.30;99.90;;;;;;3058504;19;20495;-67
2022/07/28 02:39:34;;;;;;;5.32;2.90;;;13.30;99.90;;;;;;3059114;19;20007;-67
2022/07/28 02:40:37;;;;;;;3.90;2.38;;;13.40;99.90;;;;;;3058994;19;20011;-67
2022/07/28 02:41:44;;;;;;;5.25;2.50;;;13.20;99.90;;;;;;3059211;19;20002;-66
2022/07/28 02:42:49;;;;;;;4.45;2.53;;;13.30;99.90;;;;;;3055458;19;20031;-66
2022/07/28 02:44:02;;;;;;;3.92;2.40;;;13.20;99.90;;;;;;3057878;19;20026;-66
2022/07/28 02:45:10;;;;;;;4.78;2.75;;;14.30;99.90;;;;;;3059590;19;20019;-67
2022/07/28 02:46:20;;;;;;;5.10;2.50;;;13.20;99.90;;;;;;3057771;19;20018;-67
2022/07/28 02:47:25;;;;;;;4.93;2.50;;;13.30;99.90;;;;;;3058743;19;20471;-67
2022/07/28 02:48:35;;;;;;;4.18;2.30;;;13.00;99.90;;;;;;3058828;19;20603;-66
2022/07/28 02:49:39;;;;;;;4.80;2.30;;;13.20;99.90;;;;;;3058806;19;20006;-67
2022/07/28 02:50:46;;;;;;;5.32;2.85;;;13.20;99.90;;;;;;3058697;19;20356;-67
2022/07/28 02:51:49;;;;;;;4.05;2.60;;;13.10;99.90;;;;;;3058786;19;20011;-67
2022/07/28 02:52:58;;;;;;;3.38;2.45;;;13.10;99.90;;;;;;3058308;19;20413;-66
2022/07/28 02:54:02;;;;;;;3.90;2.55;;;15.10;99.90;;;;;;3058914;19;20379;-66
2022/07/28 02:55:07;;;;;;;5.68;2.80;;;13.10;99.90;;;;;;3058247;19;20380;-66
2022/07/28 02:56:10;;;;;;;4.15;2.35;;;13.40;99.90;;;;;;3058516;19;20046;-66
2022/07/28 02:57:15;;;;;;;6.00;2.53;;;12.80;99.90;;;;;;3058519;19;20022;-67
2022/07/28 02:58:20;;;;;;;3.80;2.40;;;12.90;99.90;;;;;;3058750;19;20507;-67
2022/07/28 02:59:26;;;;;;;5.82;2.97;;;13.10;99.90;;;;;;3057701;19;20007;-67
2022/07/28 03:00:28;;;;;;;3.42;2.40;;;13.20;99.90;;;;;;3058926;19;20111;-67
2022/07/28 03:01:33;;;;;;;6.22;2.63;;;13.40;99.90;;;;;;3058756;19;20015;-67
2022/07/28 03:02:35;;;;;;;5.30;2.83;;;13.50;99.90;;;;;;3057843;19;20007;-66
2022/07/28 03:03:42;;;;;;;4.22;2.40;;;13.00;99.90;;;;;;3056300;19;20078;-66
2022/07/28 03:04:57;;;;;;;3.70;2.63;;;13.10;99.90;;;;;;3058815;19;20365;-66
2022/07/28 03:06:01;;;;;;;3.67;2.75;;;13.10;99.90;;;;;;3057798;19;20014;-67
2022/07/28 03:07:03;;;;;;;4.05;2.75;;;13.10;99.90;;;;;;3060454;19;20011;-67
2022/07/28 03:08:07;;;;;;;;;;;13.00;99.90;;;;;;3057432;19;20017;-66
2022/07/28 03:09:08;;;;;;;4.57;2.53;;;12.90;99.90;;;;;;3060348;19;19926;-66
2022/07/28 03:10:20;;;;;;;3.22;2.50;;;13.30;99.90;;;;;;3058590;19;20013;-66
2022/07/28 03:11:22;;;;;;;4.13;2.60;;;13.20;99.90;;;;;;3058911;19;20015;-66
2022/07/28 03:12:26;;;;;;;4.50;2.50;;;13.10;99.90;;;;;;3058221;19;20014;-66
2022/07/28 03:13:28;;;;;;;5.25;2.70;;;12.80;99.90;;;;;;3057943;19;20010;-67
2022/07/28 03:14:32;;;;;;;;;;;13.00;99.90;;;;;;3059905;19;20019;-66
2022/07/28 03:15:34;;;;;;;3.47;2.22;;;12.90;99.90;;;;;;3058182;19;20290;-67
2022/07/28 03:16:38;;;;;;;4.38;2.50;;;13.10;99.90;;;;;;3058435;19;20492;-66
2022/07/28 03:17:39;;;;;;;4.68;2.40;;;12.90;99.90;;;;;;3058791;19;20009;-66
2022/07/28 03:18:46;;;;;;;4.72;2.20;;;13.00;99.90;;;;;;3056217;19;20034;-67
2022/07/28 03:19:48;;;;;;;5.97;2.67;;;12.80;99.90;;;;;;3058918;19;20021;-66
2022/07/28 03:20:52;;;;;;;4.00;2.38;;;13.20;99.90;;;;;;3057403;19;20021;-67
2022/07/28 03:21:53;;;;;;;4.05;2.63;;;13.20;99.90;;;;;;3059810;19;20021;-66
2022/07/28 03:22:57;;;;;;;3.10;2.30;;;13.10;99.90;;;;;;3058235;19;20018;-67
2022/07/28 03:23:59;;;;;;;4.53;2.50;;;13.10;99.90;;;;;;3056155;19;20011;-67
2022/07/28 03:25:07;;;;;;;5.07;2.40;;;13.20;99.90;;;;;;3054973;19;20678;-67
2022/07/28 03:26:12;;;;;;;4.78;2.50;;;13.10;99.90;;;;;;3058163;19;20007;-67
2022/07/28 03:27:24;;;;;;;5.97;2.30;;;13.20;99.90;;;;;;3058320;19;20010;-67
2022/07/28 03:28:27;;;;;;;3.85;2.30;;;13.20;99.90;;;;;;3058058;19;20006;-67
2022/07/28 03:29:34;;;;;;;3.90;2.28;;;13.20;99.90;;;;;;3058471;19;20483;-66
2022/07/28 03:30:44;;;;;;;5.40;2.40;;;13.10;99.90;;;;;;3058015;19;20013;-66
2022/07/28 03:31:47;;;;;;;5.88;2.60;;;13.00;99.90;;;;;;3058413;19;20010;-67
2022/07/28 03:32:56;;;;;;;4.15;2.60;;;13.00;99.90;;;;;;3057714;19;20019;-67
2022/07/28 03:34:00;;;;;;;5.15;2.72;;;12.90;99.90;;;;;;3057584;19;20073;-67
2022/07/28 03:35:04;;;;;;;5.38;2.40;;;13.00;99.90;;;;;;3056777;19;20015;-66
2022/07/28 03:36:13;;;;;;;5.68;2.53;;;13.20;99.90;;;;;;3059208;19;20046;-67
2022/07/28 03:37:19;;;;;;;3.70;2.30;;;12.90;99.90;;;;;;3058439;19;20362;-67
2022/07/28 03:38:26;;;;;;;3.05;2.20;;;13.20;99.90;;;;;;3058455;19;20129;-67
2022/07/28 03:39:30;;;;;;;4.80;2.53;;;13.60;99.90;;;;;;3058061;19;20010;-67
2022/07/28 03:40:36;;;;;;;4.13;2.30;;;13.20;99.90;;;;;;3058129;19;20009;-67
2022/07/28 03:41:40;;;;;;;5.82;2.60;;;13.10;99.90;;;;;;3058194;19;20014;-67
2022/07/28 03:42:46;;;;;;;3.50;2.47;;;13.20;99.90;;;;;;3058417;19;20085;-67
2022/07/28 03:43:49;;;;;;;3.05;2.20;;;13.30;99.90;;;;;;3058176;19;20019;-67
2022/07/28 03:44:53;;;;;;;4.95;2.45;;;13.10;99.90;;;;;;3057888;19;20291;-67
2022/07/28 03:45:57;;;;;;;5.65;2.85;;;13.30;99.90;;;;;;3058104;19;20353;-67
2022/07/28 03:46:59;;;;;;;5.65;2.40;;;13.30;99.90;;;;;;3057853;19;20170;-66
2022/07/28 03:48:03;;;;;;;4.60;2.60;;;13.20;99.90;;;;;;3058862;19;20027;-67
2022/07/28 03:49:09;;;;;;;5.22;2.20;;;13.70;99.90;;;;;;3058115;19;20482;-67
2022/07/28 03:50:13;;;;;;;3.17;2.30;;;13.30;99.90;;;;;;3057029;19;20475;-66
2022/07/28 03:51:15;;;;;;;4.97;2.70;;;13.30;99.90;;;;;;3057815;19;20010;-67
2022/07/28 03:52:19;;;;;;;4.80;2.60;;;13.40;99.90;;;;;;3058960;19;20018;-67
2022/07/28 03:53:23;;;;;;;5.05;2.70;;;13.10;99.90;;;;;;3056790;19;20077;-66
2022/07/28 03:54:27;;;;;;;4.55;2.90;;;13.10;99.90;;;;;;3057614;19;20365;-66
2022/07/28 03:55:29;;;;;;;4.07;2.47;;;13.40;99.90;;;;;;3057936;19;20045;-67
2022/07/28 03:56:33;;;;;;;;;;;13.40;99.90;;;;;;3058599;19;20017;-67
2022/07/28 03:57:34;;;;;;;4.88;2.60;;;13.30;99.90;;;;;;3057706;19;19921;-67
2022/07/28 03:58:38;;;;;;;4.13;2.67;;;13.30;99.90;;;;;;3057177;19;20525;-66
2022/07/28 03:59:40;;;;;;;5.63;2.90;;;13.10;99.90;;;;;;3057868;19;20026;-66
2022/07/28 04:00:44;;;;;;;5.03;2.55;;;13.70;99.90;;;;;;3057943;19;20079;-66
2022/07/28 04:01:45;;;;;;;4.18;2.75;;;13.40;99.90;;;;;;3057365;19;20018;-66
2022/07/28 04:02:49;;;;;;;5.63;2.80;;;13.20;99.90;;;;;;3058079;19;20014;-67
2022/07/28 04:03:51;;;;;;;7.88;2.78;;;13.80;99.90;;;;;;3056442;19;20018;-66
2022/07/28 04:04:57;;;;;;;4.90;2.53;;;13.40;99.90;;;;;;3059458;19;20011;-65
2022/07/28 04:05:58;;;;;;;6.20;2.60;;;13.40;99.90;;;;;;3057963;19;20030;-66
2022/07/28 04:07:02;;;;;;;5.95;2.78;;;13.60;99.90;;;;;;3058723;19;20016;-66
2022/07/28 04:08:04;;;;;;;4.35;2.60;;;13.40;99.90;;;;;;3057003;19;20392;-66
2022/07/28 04:09:08;;;;;;;6.25;2.63;;;13.50;99.90;;;;;;3058936;19;20070;-66
2022/07/28 04:10:12;;;;;;;6.95;2.47;;;13.70;99.90;;;;;;3057782;19;20019;-66
2022/07/28 04:11:16;;;;;;;4.05;2.65;;;13.50;99.90;;;;;;3059486;19;20006;-66
2022/07/28 04:12:17;;;;;;;5.25;2.67;;;13.50;99.90;;;;;;3058736;19;20027;-67
2022/07/28 04:13:21;;;;;;;7.60;2.70;;;13.60;99.90;;;;;;3057372;19;20019;-67
2022/07/28 04:14:23;;;;;;;5.18;2.50;;;13.90;99.90;;;;;;3055339;19;20730;-67
2022/07/28 04:15:29;;;;;;;5.88;2.75;;;13.60;99.90;;;;;;3059486;19;20011;-67
2022/07/28 04:16:30;;;;;;;6.65;2.60;;;13.60;99.90;;;;;;3056722;19;20033;-67
2022/07/28 04:17:36;;;;;;;4.38;2.60;;;13.60;99.90;;;;;;3056945;19;20007;-67
2022/07/28 04:18:37;;;;;;;6.82;2.67;;;13.60;99.90;;;;;;3057812;19;20019;-66
2022/07/28 04:19:41;;;;;;;9.02;2.65;;;13.60;99.90;;;;;;3057461;19;20359;-67
2022/07/28 04:20:45;;;;;;;6.53;2.58;;;13.60;99.90;;;;;;3057389;19;20015;-67
2022/07/28 04:21:49;;;;;;;4.32;2.50;;;13.70;99.90;;;;;;3057612;19;20084;-67
2022/07/28 04:22:51;;;;;;;6.50;2.67;;;13.50;99.90;;;;;;3058875;19;20102;-66
2022/07/28 04:23:55;;;;;;;5.50;2.55;;;13.60;99.90;;;;;;3055089;19;20539;-67
2022/07/28 04:24:57;;;;;;;6.13;2.63;;;13.50;99.90;;;;;;3056768;19;20043;-67
2022/07/28 04:26:00;;;;;;;4.88;2.55;;;13.60;99.90;;;;;;3055914;19;20011;-66
2022/07/28 04:27:05;;;;;;;4.90;2.35;;;13.70;99.90;;;;;;3055853;19;20014;-67
2022/07/28 04:28:07;;;;;;;3.50;2.40;;;13.90;99.90;;;;;;3055756;19;20495;-66
2022/07/28 04:29:11;;;;;;;4.38;2.58;;;13.50;99.90;;;;;;3057410;19;20440;-66
2022/07/28 04:30:16;;;;;;;4.78;2.53;;;13.50;99.90;;;;;;3057758;19;20623;-66
2022/07/28 04:31:19;;;;;;;6.20;2.70;;;13.60;99.90;;;;;;3058440;19;20010;-66
2022/07/28 04:32:21;;;;;;;4.30;2.40;;;13.60;99.90;;;;;;3057522;19;20018;-66
2022/07/28 04:33:26;;;;;;;3.63;2.05;;;13.60;99.90;;;;;;3057404;19;20018;-66
2022/07/28 04:34:27;;;;;;;4.43;2.47;;;13.60;99.90;;;;;;3059990;19;20017;-66
2022/07/28 04:35:33;;;;;;;5.05;2.53;;;13.70;99.90;;;;;;3060466;19;20015;-67
2022/07/28 04:36:40;;;;;;;4.63;2.30;;;13.40;99.90;;;;;;3061492;19;20013;-67
2022/07/28 04:37:45;;;;;;;5.82;2.38;;;13.60;99.90;;;;;;3060269;19;20011;-66
2022/07/28 04:38:46;;;;;;;3.90;2.10;;;13.70;99.90;;;;;;3060846;19;20062;-66
2022/07/28 04:39:51;;;;;;;5.25;2.25;;;13.60;99.90;;;;;;3060502;19;20015;-67
2022/07/28 04:40:52;;;;;;;5.05;2.10;;;13.50;99.90;;;;;;3060639;19;20467;-67
2022/07/28 04:41:56;;;;;;;4.43;1.98;;;13.50;99.90;;;;;;3060567;19;20030;-67
2022/07/28 04:42:57;;;;;;;5.28;2.10;;;13.20;99.90;;;;;;3060748;19;20021;-66
2022/07/28 04:44:01;;;;;;;3.33;2.35;;;13.50;99.90;;;;;;3059346;19;20110;-67
2022/07/28 04:45:04;;;;;;;8.60;2.40;;;13.40;99.90;;;;;;3059504;19;20384;-66
2022/07/28 04:46:08;;;;;;;4.95;2.35;;;13.80;99.90;;;;;;3060172;19;20011;-66
2022/07/28 04:47:10;;;;;;;5.28;2.38;;;13.50;99.90;;;;;;3060520;19;20437;-67
2022/07/28 04:48:14;;;;;;;4.70;2.17;;;13.60;99.90;;;;;;3060330;19;20037;-66
2022/07/28 04:49:15;;;;;;;3.45;2.00;;;13.50;99.90;;;;;;3061902;19;20006;-66
2022/07/28 04:50:20;;;;;;;3.70;2.08;;;13.80;99.90;;;;;;3061042;19;20401;-67
2022/07/28 04:51:22;;;;;;;3.53;2.10;;;13.60;99.90;;;;;;3060363;19;20026;-66
2022/07/28 04:52:28;;;;;;;4.60;2.45;;;13.30;99.90;;;;;;3060405;19;20014;-66
2022/07/28 04:53:31;;;;;;;4.38;2.42;;;13.50;99.90;;;;;;3060294;19;20038;-66
2022/07/28 04:54:35;;;;;;;6.50;3.00;;;13.20;99.90;;;;;;3059581;19;20018;-66
2022/07/28 04:55:37;;;;;;;5.25;3.00;;;13.50;99.90;;;;;;3060264;19;20002;-66
2022/07/28 04:56:43;;;;;;;6.68;3.00;;;13.50;99.90;;;;;;3061179;19;20018;-66
2022/07/28 04:57:46;;;;;;;5.07;3.25;;;13.20;99.90;;;;;;3059741;19;20067;-66
2022/07/28 04:58:50;;;;;;;6.22;3.50;;;13.20;99.90;;;;;;3061620;19;20028;-66
2022/07/28 04:59:53;;;;;;;8.30;4.00;;;13.50;99.90;;;;;;3062065;19;20026;-66
2022/07/28 05:00:57;;;;;;;7.53;3.45;;;13.20;99.90;;;;;;3062202;19;20026;-66
2022/07/28 05:01:58;;;;;;;5.68;3.70;;;13.30;99.90;;;;;;3063474;19;20014;-66
2022/07/28 05:03:03;;;;;;;5.22;3.67;;;13.60;99.90;;;;;;3062757;19;20010;-66
2022/07/28 05:04:04;;;;;;;5.45;3.78;;;13.10;99.90;;;;;;3059724;19;20431;-66
2022/07/28 05:05:08;;;;;;;;;;;13.20;99.90;;;;;;3058343;19;20047;-65
2022/07/28 05:06:10;;;;;;;5.80;3.83;;;13.30;99.90;;;;;;3060538;19;19918;-65
2022/07/28 05:07:18;;;;;;;7.97;3.80;;;13.30;99.90;;;;;;3059941;19;20010;-66
2022/07/28 05:08:22;;;;;;;8.15;4.13;;;13.20;99.90;;;;;;3058599;19;20018;-66
2022/07/28 05:09:27;;;;;;;7.57;4.03;;;13.30;99.90;;;;;;3060812;19;20006;-66
2022/07/28 05:10:29;;;;;;;7.90;4.30;;;13.20;99.90;;;;;;3059122;19;20078;-67
2022/07/28 05:11:33;;;;;;;5.55;3.88;;;13.10;99.90;;;;;;3062439;19;20369;-66
2022/07/28 05:12:34;;;;;;;5.57;4.20;;;13.20;99.90;;;;;;3059650;19;20025;-66
2022/07/28 05:13:38;;;;;;;4.85;3.75;;;13.10;99.90;;;;;;3058488;19;20018;-67
2022/07/28 05:14:40;;;;;;;6.70;4.15;;;13.10;99.90;;;;;;3057855;19;20007;-66
2022/07/28 05:15:44;;;;;;;7.78;4.88;;;13.50;99.90;;;;;;3059051;19;20017;-66
2022/07/28 05:16:45;;;;;;;7.07;4.45;;;13.10;99.90;;;;;;3061815;19;20508;-66
2022/07/28 05:17:49;;;;;;;6.22;4.18;;;;;;;;;;3058954;19;20406;-66
2022/07/28 05:18:51;;;;;;;6.72;4.00;;;13.00;99.90;;;;;;3059111;19;20378;-66
2022/07/28 05:19:55;;;;;;;8.90;4.43;;;13.10;99.90;;;;;;3060220;19;20031;-66
2022/07/28 05:20:56;;;;;;;6.78;3.97;;;13.20;99.90;;;;;;3059928;19;20511;-66
2022/07/28 05:22:00;;;;;;;5.63;4.03;;;13.10;99.90;;;;;;3060714;19;20014;-66
2022/07/28 05:23:02;;;;;;;8.13;3.92;;;13.20;99.90;;;;;;3059823;19;20019;-66
2022/07/28 05:24:12;;;;;;;7.72;4.13;;;13.30;99.90;;;;;;3059594;19;20020;-66
2022/07/28 05:25:18;;;;;;;6.50;3.75;;;13.10;99.90;;;;;;3056856;19;20027;-66
2022/07/28 05:26:22;;;;;;;5.45;3.63;;;13.20;99.90;;;;;;3058810;19;20021;-66
2022/07/28 05:27:23;;;;;;;5.57;3.70;;;13.40;99.90;;;;;;3058576;19;20019;-66
2022/07/28 05:28:27;;;;;;;5.95;3.85;;;13.20;99.90;;;;;;3060012;19;20091;-66
2022/07/28 05:29:29;;;;;;;7.53;4.00;;;13.30;99.90;;;;;;3059715;19;20018;-66
2022/07/28 05:30:33;;;;;;;5.95;3.85;;;13.40;99.90;;;;;;3059920;19;20014;-67
2022/07/28 05:31:34;;;;;;;6.60;3.95;;;13.40;99.90;;;;;;3058284;19;20006;-66
2022/07/28 05:32:38;;;;;;;6.75;3.65;;;13.40;99.90;;;;;;3059395;19;20013;-66
2022/07/28 05:33:39;;;;;;;7.90;3.85;;;13.60;99.90;;;;;;3060598;19;20011;-67
2022/07/28 05:34:44;;;;;;;6.07;3.47;;;13.30;99.90;;;;;;3060098;19;20014;-67
2022/07/28 05:35:51;;;;;;;5.85;3.78;;;13.40;99.90;;;;;;3057875;19;20030;-67
2022/07/28 05:36:55;;;;;;;6.63;3.28;;;13.50;99.90;;;;;;3059488;19;20015;-66
2022/07/28 05:37:57;;;;;;;9.55;3.65;;;13.50;99.90;;;;;;3059578;19;20010;-68
2022/07/28 05:39:01;;;;;;;9.73;3.97;;;13.70;99.90;;;;;;3059962;19;20003;-67